Time;durP1;ratioP1;P1;durP2;ratioP2;P2;SDS_P1;SDS_P2;PMS_P1;PMS_P2;Temp;Humidity;BMP_temperature;BMP_pressure;BME280_temperature;BME280_humidity;BME280_pressure;Samples;Min_cycle;Max_cycle;Signal;HPM_P1;HPM_P2
2022/05/05 00:01:34;;;;;;;2.88;1.52;;;19.20;47.40;;;;;;4497914;31;20146;-65
2022/05/05 00:04:01;;;;;;;4.25;1.50;;;19.20;47.40;;;;;;4497253;31;20188;-65
2022/05/05 00:06:27;;;;;;;4.03;1.50;;;19.20;47.40;;;;;;4497951;31;20156;-64
2022/05/05 00:08:56;;;;;;;4.22;1.50;;;19.20;47.40;;;;;;4497386;31;20136;-64
2022/05/05 00:14:23;;;;;;;2.80;1.30;;;19.20;47.40;;;;;;4497707;31;20225;-64
2022/05/05 00:16:57;;;;;;;4.35;1.70;;;19.20;47.40;;;;;;4497250;31;20669;-64
2022/05/05 00:19:24;;;;;;;4.78;1.50;;;19.20;47.40;;;;;;4498901;31;20298;-64
2022/05/05 00:21:50;;;;;;;5.65;1.20;;;19.10;47.40;;;;;;4497890;31;20230;-64
2022/05/05 00:24:17;;;;;;;3.78;1.50;;;19.10;47.40;;;;;;4484471;31;20135;-64
2022/05/05 00:26:44;;;;;;;3.10;1.40;;;19.10;47.40;;;;;;4483930;31;20125;-64
2022/05/05 00:29:10;;;;;;;4.25;1.40;;;19.10;47.40;;;;;;4484172;31;20128;-64
2022/05/05 00:31:36;;;;;;;2.22;1.00;;;19.10;47.40;;;;;;4484468;31;20610;-64
2022/05/05 00:34:02;;;;;;;3.00;1.35;;;19.10;47.40;;;;;;4497936;31;20139;-64
2022/05/05 00:36:28;;;;;;;3.85;1.35;;;19.00;47.30;;;;;;4484539;31;20143;-64
2022/05/05 00:38:54;;;;;;;4.15;1.40;;;19.10;47.40;;;;;;4483749;31;20121;-64
2022/05/05 00:41:20;;;;;;;2.55;0.90;;;19.10;47.40;;;;;;4484309;31;20139;-64
2022/05/05 00:43:47;;;;;;;4.65;1.55;;;19.10;47.40;;;;;;4496790;31;20147;-64
2022/05/05 00:46:13;;;;;;;7.22;1.38;;;19.10;47.40;;;;;;4498309;31;20143;-64
2022/05/05 00:48:42;;;;;;;3.58;1.65;;;19.10;47.40;;;;;;4470366;31;20456;-64
2022/05/05 00:51:08;;;;;;;4.13;1.50;;;19.10;47.40;;;;;;4496644;31;20132;-64
2022/05/05 00:53:34;;;;;;;3.17;1.10;;;19.10;47.40;;;;;;4497313;31;20143;-64
2022/05/05 00:56:07;;;;;;;4.25;1.55;;;19.00;47.40;;;;;;4483534;31;20124;-64
2022/05/05 00:58:33;;;;;;;3.65;1.17;;;19.00;47.30;;;;;;4497121;31;20660;-64
2022/05/05 01:01:06;;;;;;;2.95;1.20;;;19.00;47.40;;;;;;4496727;31;20146;-64
2022/05/05 01:03:34;;;;;;;4.10;1.20;;;19.00;47.40;;;;;;4496905;31;20132;-64
2022/05/05 01:06:01;;;;;;;2.25;1.10;;;19.00;47.40;;;;;;4484045;31;20136;-64
2022/05/05 01:08:27;;;;;;;2.22;1.10;;;19.00;47.40;;;;;;4483222;31;20151;-65
2022/05/05 01:10:53;;;;;;;2.85;1.10;;;19.00;47.40;;;;;;4483988;31;20128;-64
2022/05/05 01:13:20;;;;;;;3.78;1.30;;;19.00;47.40;;;;;;4497479;31;20179;-64
2022/05/05 01:15:46;;;;;;;3.03;1.10;;;19.00;47.40;;;;;;4498001;31;20238;-64
2022/05/05 01:18:12;;;;;;;2.15;1.20;;;19.00;47.40;;;;;;4483268;31;20132;-64
2022/05/05 01:20:52;;;;;;;4.38;1.25;;;18.90;47.40;;;;;;4496491;31;20604;-64
2022/05/05 01:23:19;;;;;;;2.42;1.10;;;19.00;47.40;;;;;;4497179;31;20133;-64
2022/05/05 01:28:39;;;;;;;2.95;1.10;;;18.90;47.40;;;;;;4496857;31;20132;-64
2022/05/05 01:31:05;;;;;;;4.85;1.20;;;18.90;47.40;;;;;;4497557;31;20159;-65
2022/05/05 01:33:31;;;;;;;3.90;0.88;;;18.90;47.40;;;;;;4495689;31;20120;-65
2022/05/05 01:35:59;;;;;;;3.13;1.20;;;18.90;47.40;;;;;;4483797;31;20485;-64
2022/05/05 01:38:35;;;;;;;1.60;0.95;;;18.90;47.40;;;;;;4496916;31;20514;-64
2022/05/05 01:41:06;;;;;;;2.53;1.23;;;18.90;47.40;;;;;;4496721;31;20171;-64
2022/05/05 01:43:35;;;;;;;1.92;0.80;;;18.90;47.40;;;;;;4497197;31;20147;-64
2022/05/05 01:46:02;;;;;;;2.22;1.23;;;18.90;47.40;;;;;;4496476;31;20136;-64
2022/05/05 01:48:29;;;;;;;2.65;1.25;;;18.90;47.40;;;;;;4496029;31;20787;-64
2022/05/05 01:50:55;;;;;;;2.70;1.27;;;18.90;47.40;;;;;;4495972;31;20180;-65
2022/05/05 01:53:21;;;;;;;1.70;1.00;;;18.80;47.40;;;;;;4483820;31;20121;-64
2022/05/05 01:55:47;;;;;;;1.80;0.90;;;18.80;47.40;;;;;;4482649;31;20285;-64
2022/05/05 01:58:13;;;;;;;2.30;1.20;;;18.80;47.40;;;;;;4483553;31;20271;-64
2022/05/05 02:00:39;;;;;;;2.05;1.15;;;18.80;47.40;;;;;;4495803;31;20124;-64
2022/05/05 02:03:12;;;;;;;3.33;1.30;;;18.80;47.40;;;;;;4496275;31;20140;-64
2022/05/05 02:05:43;;;;;;;2.97;1.20;;;18.80;47.40;;;;;;4507977;31;20143;-64
2022/05/05 02:08:10;;;;;;;1.95;1.00;;;18.80;47.40;;;;;;4511706;31;20156;-64
2022/05/05 02:10:36;;;;;;;4.00;1.15;;;18.80;47.40;;;;;;4512540;31;20703;-64
2022/05/05 02:13:03;;;;;;;3.67;1.10;;;18.80;47.40;;;;;;4498323;31;20143;-64
2022/05/05 02:15:30;;;;;;;3.65;1.02;;;18.80;47.40;;;;;;4513411;31;20142;-64
2022/05/05 02:17:56;;;;;;;2.20;0.90;;;18.80;47.40;;;;;;4512367;31;20162;-64
2022/05/05 02:20:22;;;;;;;2.72;1.00;;;18.70;47.40;;;;;;4512191;31;20190;-64
2022/05/05 02:22:48;;;;;;;1.90;0.85;;;18.70;47.40;;;;;;4498874;31;20144;-64
2022/05/05 02:25:14;;;;;;;2.63;1.02;;;18.70;47.40;;;;;;4511541;31;20186;-64
2022/05/05 02:27:53;;;;;;;1.52;0.82;;;18.70;47.40;;;;;;4499219;31;20140;-64
2022/05/05 02:30:21;;;;;;;1.60;0.90;;;18.70;47.40;;;;;;4511600;31;20151;-65
2022/05/05 02:32:48;;;;;;;2.75;1.05;;;18.70;47.40;;;;;;4511977;31;20136;-64
2022/05/05 02:35:14;;;;;;;1.92;0.80;;;18.70;47.40;;;;;;4512804;31;20140;-64
2022/05/05 02:40:26;;;;;;;1.23;0.70;;;18.70;47.40;;;;;;4512900;31;20140;-64
2022/05/05 02:42:54;;;;;;;1.30;0.88;;;18.70;47.50;;;;;;4511403;31;20132;-64
2022/05/05 02:45:19;;;;;;;1.77;0.95;;;18.70;47.40;;;;;;4501821;31;20144;-64
2022/05/05 02:47:47;;;;;;;4.07;0.98;;;18.70;47.50;;;;;;4500880;31;20645;-64
2022/05/05 02:50:14;;;;;;;1.88;0.80;;;18.70;47.50;;;;;;4514701;31;20120;-64
2022/05/05 02:52:40;;;;;;;3.28;1.20;;;18.70;47.50;;;;;;4514733;31;20285;-64
2022/05/05 02:55:08;;;;;;;1.25;0.90;;;18.70;47.50;;;;;;4501503;31;20138;-65
2022/05/05 02:57:34;;;;;;;2.90;1.00;;;18.70;47.50;;;;;;4516324;31;20203;-64
2022/05/05 03:00:02;;;;;;;1.88;1.00;;;18.70;47.50;;;;;;4500921;31;20139;-64
2022/05/05 03:02:29;;;;;;;1.20;0.73;;;18.70;47.50;;;;;;4514947;31;20116;-64
2022/05/05 03:04:54;;;;;;;2.05;0.98;;;18.60;47.40;;;;;;4501098;31;20151;-64
2022/05/05 03:07:22;;;;;;;2.13;0.80;;;18.60;47.40;;;;;;4501446;31;20136;-64
2022/05/05 03:09:48;;;;;;;2.60;1.00;;;18.60;47.40;;;;;;4514591;31;20131;-65
2022/05/05 03:12:13;;;;;;;1.98;0.90;;;18.60;47.40;;;;;;4500993;31;20194;-66
2022/05/05 03:14:39;;;;;;;2.03;0.90;;;18.60;47.40;;;;;;4501788;31;20117;-64
2022/05/05 03:17:06;;;;;;;1.30;0.70;;;18.60;47.50;;;;;;4513819;31;20143;-64
2022/05/05 03:19:32;;;;;;;2.67;0.90;;;18.60;47.50;;;;;;4501110;31;20124;-64
2022/05/05 03:21:58;;;;;;;1.33;0.60;;;18.60;47.50;;;;;;4515102;31;20108;-65
2022/05/05 03:24:24;;;;;;;2.05;0.90;;;18.60;47.50;;;;;;4514317;31;20135;-64
2022/05/05 03:26:50;;;;;;;2.08;0.98;;;18.60;47.50;;;;;;4500690;31;20172;-64
2022/05/05 03:29:16;;;;;;;2.08;0.98;;;18.60;47.50;;;;;;4500847;31;20132;-64
2022/05/05 03:31:42;;;;;;;1.80;1.00;;;18.60;47.50;;;;;;4514645;31;20148;-64
2022/05/05 03:34:09;;;;;;;2.00;0.90;;;18.60;47.50;;;;;;4500562;31;20139;-64
2022/05/05 03:36:35;;;;;;;2.05;0.82;;;18.50;47.50;;;;;;4514491;31;20139;-64
2022/05/05 03:39:02;;;;;;;4.32;0.80;;;18.50;47.50;;;;;;4500437;31;20163;-64
2022/05/05 03:41:28;;;;;;;1.42;0.90;;;18.50;48.50;;;;;;4514062;31;20277;-65
2022/05/05 03:43:53;;;;;;;1.20;0.63;;;18.50;47.50;;;;;;4514984;31;20127;-64
2022/05/05 03:46:19;;;;;;;1.55;0.63;;;18.50;47.50;;;;;;4500858;31;20274;-64
2022/05/05 03:48:45;;;;;;;2.78;0.90;;;18.50;47.50;;;;;;4514131;31;20136;-64
2022/05/05 03:51:11;;;;;;;1.45;0.80;;;18.50;47.60;;;;;;4513531;31;20120;-64
2022/05/05 03:53:37;;;;;;;1.65;0.70;;;18.50;47.60;;;;;;4514616;31;20646;-64
2022/05/05 03:56:04;;;;;;;1.67;0.90;;;18.60;47.60;;;;;;4513035;31;20124;-64
2022/05/05 03:58:30;;;;;;;2.25;0.90;;;18.50;47.60;;;;;;4514060;31;20132;-64
2022/05/05 04:00:56;;;;;;;3.08;0.98;;;18.50;47.60;;;;;;4513814;31;20125;-64
2022/05/05 04:03:31;;;;;;;2.28;1.10;;;18.50;47.60;;;;;;4514942;31;20128;-64
2022/05/05 04:06:03;;;;;;;1.92;0.88;;;18.50;47.70;;;;;;4515406;31;20132;-64
2022/05/05 04:08:29;;;;;;;1.60;0.70;;;18.50;47.70;;;;;;4513161;31;20194;-64
2022/05/05 04:10:55;;;;;;;1.45;0.68;;;18.50;47.60;;;;;;4514078;31;20187;-65
2022/05/05 04:13:21;;;;;;;1.30;0.85;;;18.50;47.70;;;;;;4500236;31;20618;-64
2022/05/05 04:15:48;;;;;;;1.90;0.90;;;18.50;47.70;;;;;;4513749;31;20132;-64
2022/05/05 04:18:15;;;;;;;1.52;0.70;;;18.50;47.70;;;;;;4513249;31;20193;-64
2022/05/05 04:20:42;;;;;;;1.75;0.80;;;18.50;47.70;;;;;;4513436;31;20144;-64
2022/05/05 04:23:08;;;;;;;2.13;0.75;;;18.40;47.70;;;;;;4513927;31;20344;-64
2022/05/05 04:25:44;;;;;;;3.00;0.80;;;18.40;47.70;;;;;;4513946;31;20173;-64
2022/05/05 04:28:12;;;;;;;1.25;0.65;;;18.50;47.70;;;;;;4513824;31;20600;-64
2022/05/05 04:30:39;;;;;;;1.92;1.00;;;18.40;47.70;;;;;;4499791;31;20159;-64
2022/05/05 04:33:08;;;;;;;1.65;0.82;;;18.40;47.70;;;;;;4513326;31;20124;-64
2022/05/05 04:35:35;;;;;;;1.55;0.95;;;18.40;47.70;;;;;;4514243;31;20128;-64
2022/05/05 04:38:02;;;;;;;2.10;1.00;;;18.40;47.70;;;;;;4513708;31;20138;-65
2022/05/05 04:40:28;;;;;;;1.08;0.70;;;18.40;47.70;;;;;;4513696;31;20273;-64
2022/05/05 04:42:54;;;;;;;2.72;1.05;;;18.40;47.70;;;;;;4512704;31;20124;-64
2022/05/05 04:45:20;;;;;;;1.20;0.70;;;18.40;47.70;;;;;;4514496;31;20343;-65
2022/05/05 04:47:46;;;;;;;2.30;0.80;;;18.40;47.70;;;;;;4512435;31;20139;-64
2022/05/05 04:50:11;;;;;;;0.95;0.73;;;18.40;47.80;;;;;;4513084;31;20124;-64
2022/05/05 04:52:37;;;;;;;1.73;0.70;;;18.40;47.70;;;;;;4499866;31;20124;-64
2022/05/05 04:55:03;;;;;;;1.23;0.77;;;18.40;47.80;;;;;;4499440;31;20128;-64
2022/05/05 04:57:29;;;;;;;1.80;0.60;;;18.30;47.70;;;;;;4513497;31;20260;-64
2022/05/05 04:59:55;;;;;;;1.88;0.85;;;18.40;47.80;;;;;;4512246;31;20538;-64
2022/05/05 05:02:21;;;;;;;1.10;0.70;;;18.30;47.80;;;;;;4512995;31;20139;-64
2022/05/05 05:04:47;;;;;;;2.10;0.70;;;18.30;47.80;;;;;;4499333;31;20156;-64
2022/05/05 05:07:13;;;;;;;2.10;0.85;;;18.30;47.80;;;;;;4513249;31;20560;-64
2022/05/05 05:09:39;;;;;;;2.22;0.80;;;18.30;47.80;;;;;;4512618;31;20171;-64
2022/05/05 05:12:05;;;;;;;1.70;0.70;;;18.30;47.80;;;;;;4499380;31;20132;-64
2022/05/05 05:14:31;;;;;;;2.05;0.85;;;18.30;47.80;;;;;;4499888;31;20132;-64
2022/05/05 05:16:57;;;;;;;1.55;0.77;;;18.40;47.80;;;;;;4498860;31;20135;-64
2022/05/05 05:19:25;;;;;;;1.20;0.73;;;18.30;47.80;;;;;;4499517;31;20148;-64
2022/05/05 05:21:51;;;;;;;1.52;0.70;;;18.30;47.80;;;;;;4513251;31;20217;-64
2022/05/05 05:24:17;;;;;;;2.28;0.93;;;18.30;47.80;;;;;;4499236;31;20128;-64
2022/05/05 05:26:43;;;;;;;1.45;0.90;;;18.30;47.80;;;;;;4499145;31;20128;-64
2022/05/05 05:29:09;;;;;;;1.10;0.60;;;18.30;47.90;;;;;;4499140;31;20128;-64
2022/05/05 05:31:34;;;;;;;1.30;0.80;;;18.30;47.80;;;;;;4512899;31;20124;-64
2022/05/05 05:34:00;;;;;;;2.22;0.88;;;18.30;47.80;;;;;;4513133;31;20116;-64
2022/05/05 05:36:26;;;;;;;1.50;0.70;;;18.30;47.80;;;;;;4513870;31;20131;-64
2022/05/05 05:38:52;;;;;;;1.33;0.65;;;18.30;47.80;;;;;;4511857;31;20132;-64
2022/05/05 05:41:18;;;;;;;1.38;0.75;;;18.30;47.80;;;;;;4499410;31;20136;-64
2022/05/05 05:43:44;;;;;;;1.35;0.80;;;18.30;47.80;;;;;;4498995;31;20116;-64
2022/05/05 05:46:10;;;;;;;1.52;0.70;;;18.30;47.90;;;;;;4512240;31;20294;-64
2022/05/05 05:48:38;;;;;;;2.67;0.90;;;18.30;47.90;;;;;;4499026;31;20147;-64
2022/05/05 05:51:07;;;;;;;2.22;0.80;;;18.30;47.90;;;;;;4498373;31;20151;-64
2022/05/05 05:53:33;;;;;;;1.40;0.68;;;18.20;47.80;;;;;;4499643;31;20208;-65
2022/05/05 05:55:59;;;;;;;2.63;1.10;;;18.30;47.90;;;;;;4511847;31;20139;-64
2022/05/05 05:58:25;;;;;;;1.20;0.75;;;18.20;47.80;;;;;;4513510;31;20128;-64
2022/05/05 06:00:51;;;;;;;1.35;0.80;;;18.30;47.90;;;;;;4513018;31;20125;-64
2022/05/05 06:06:02;;;;;;;1.05;0.60;;;18.20;47.80;;;;;;4513050;31;20140;-64
2022/05/05 06:08:27;;;;;;;0.77;0.68;;;18.30;47.90;;;;;;4511434;31;20143;-64
2022/05/05 06:10:53;;;;;;;1.85;0.60;;;18.20;47.90;;;;;;4512282;31;20201;-64
2022/05/05 06:13:19;;;;;;;1.23;0.65;;;18.20;47.90;;;;;;4511649;31;20268;-65
2022/05/05 06:15:45;;;;;;;1.17;0.70;;;18.20;47.90;;;;;;4499168;31;20258;-64
2022/05/05 06:18:11;;;;;;;1.60;0.65;;;18.20;47.90;;;;;;4498621;31;20112;-64
2022/05/05 06:20:38;;;;;;;1.60;0.80;;;18.20;47.90;;;;;;4515061;31;20142;-65
2022/05/05 06:23:04;;;;;;;1.77;0.73;;;18.20;47.90;;;;;;4516825;31;20132;-64
2022/05/05 06:25:29;;;;;;;2.05;0.57;;;18.20;47.90;;;;;;4514617;31;20297;-64
2022/05/05 06:27:57;;;;;;;4.18;0.88;;;18.20;48.00;;;;;;4515355;31;20205;-64
2022/05/05 06:30:23;;;;;;;3.42;1.30;;;18.20;47.90;;;;;;4514640;31;20132;-64
2022/05/05 06:32:49;;;;;;;4.20;1.65;;;18.20;47.70;;;;;;4516286;31;20143;-64
2022/05/05 06:35:14;;;;;;;2.47;1.48;;;18.10;47.50;;;;;;4514924;31;20132;-64
2022/05/05 06:37:41;;;;;;;3.10;1.40;;;18.10;47.30;;;;;;4514812;31;20202;-64
2022/05/05 06:40:07;;;;;;;2.55;1.20;;;18.10;47.80;;;;;;4516489;31;20188;-65
2022/05/05 06:42:33;;;;;;;2.88;1.10;;;18.20;48.10;;;;;;4514473;31;20242;-64
2022/05/05 06:44:59;;;;;;;2.90;1.27;;;18.10;48.10;;;;;;4515367;31;20138;-64
2022/05/05 06:47:26;;;;;;;3.60;1.08;;;18.10;48.20;;;;;;4514422;31;20120;-64
2022/05/05 06:49:52;;;;;;;4.30;0.90;;;18.10;48.30;;;;;;4501430;31;20128;-64
2022/05/05 06:52:18;;;;;;;2.65;1.08;;;18.20;48.40;;;;;;4514603;31;20121;-64
2022/05/05 06:54:43;;;;;;;3.60;1.00;;;18.20;48.50;;;;;;4501533;31;20127;-64
2022/05/05 06:57:09;;;;;;;2.03;0.70;;;18.10;48.50;;;;;;4514945;31;20172;-63
2022/05/05 06:59:35;;;;;;;4.32;1.20;;;18.20;48.70;;;;;;4515137;31;20128;-63
2022/05/05 07:02:02;;;;;;;2.22;0.82;;;18.20;48.80;;;;;;4515248;31;20120;-63
2022/05/05 07:07:14;;;;;;;1.70;0.77;;;18.20;49.00;;;;;;4514680;31;20136;-64
2022/05/05 07:12:27;;;;;;;3.80;0.90;;;18.20;49.30;;;;;;4513840;31;20136;-63
2022/05/05 07:14:52;;;;;;;2.50;0.88;;;18.20;49.20;;;;;;4514580;31;20132;-63
2022/05/05 07:17:18;;;;;;;2.70;1.17;;;18.20;49.20;;;;;;4514174;31;20120;-64
2022/05/05 07:19:45;;;;;;;3.55;1.10;;;18.20;49.30;;;;;;4514323;31;20128;-63
2022/05/05 07:22:11;;;;;;;1.95;0.85;;;18.20;49.30;;;;;;4500927;31;20139;-63
2022/05/05 07:24:37;;;;;;;1.98;1.17;;;18.20;49.20;;;;;;4487922;31;20135;-64
2022/05/05 07:27:04;;;;;;;3.88;0.95;;;18.20;49.30;;;;;;4501265;31;20129;-64
2022/05/05 07:29:30;;;;;;;2.60;1.13;;;18.20;49.30;;;;;;4514039;31;20611;-65
2022/05/05 07:31:56;;;;;;;3.22;1.10;;;18.20;49.30;;;;;;4500739;31;20159;-65
2022/05/05 07:34:23;;;;;;;3.20;0.95;;;18.10;49.40;;;;;;4513748;31;20288;-65
2022/05/05 07:36:49;;;;;;;3.08;0.90;;;18.20;49.40;;;;;;4515329;31;20135;-64
2022/05/05 07:39:16;;;;;;;4.20;1.00;;;18.10;49.50;;;;;;4513643;31;20449;-65
2022/05/05 07:41:42;;;;;;;4.40;1.30;;;18.20;49.60;;;;;;4514061;31;20159;-65
2022/05/05 07:44:09;;;;;;;2.58;0.98;;;18.20;49.70;;;;;;4501047;31;20120;-64
2022/05/05 07:46:36;;;;;;;3.08;0.85;;;18.20;49.80;;;;;;4500362;31;20581;-64
2022/05/05 07:49:05;;;;;;;2.95;0.98;;;18.20;49.90;;;;;;4500754;31;20726;-64
2022/05/05 07:51:32;;;;;;;3.70;1.10;;;18.20;50.00;;;;;;4500046;31;20150;-65
2022/05/05 07:56:43;;;;;;;5.18;0.98;;;18.20;50.20;;;;;;4514133;31;20202;-65
2022/05/05 07:59:10;;;;;;;3.40;1.10;;;18.20;50.10;;;;;;4513617;31;20170;-65
2022/05/05 08:01:36;;;;;;;3.47;0.80;;;18.20;50.10;;;;;;4515171;31;20249;-64
2022/05/05 08:04:02;;;;;;;4.63;1.08;;;18.20;50.00;;;;;;4514311;31;20193;-65
2022/05/05 08:06:31;;;;;;;2.63;1.00;;;18.20;50.10;;;;;;4514029;31;20175;-66
2022/05/05 08:08:58;;;;;;;2.13;1.00;;;18.20;50.10;;;;;;4513089;31;20147;-67
2022/05/05 08:11:24;;;;;;;4.70;1.00;;;18.20;50.30;;;;;;4500554;31;20124;-66
2022/05/05 08:13:50;;;;;;;2.60;1.20;;;18.20;50.30;;;;;;4512997;31;20140;-65
2022/05/05 08:16:19;;;;;;;4.05;0.93;;;18.20;50.60;;;;;;4499768;31;20251;-65
2022/05/05 08:18:45;;;;;;;3.05;0.98;;;18.20;50.60;;;;;;4500153;31;20209;-64
2022/05/05 08:21:11;;;;;;;3.83;1.00;;;18.20;50.80;;;;;;4508724;31;20286;-65
2022/05/05 08:23:39;;;;;;;2.60;1.08;;;18.20;50.90;;;;;;4484270;31;20560;-63
2022/05/05 08:28:50;;;;;;;3.53;1.60;;;18.30;50.80;;;;;;4512566;31;20143;-65
2022/05/05 08:31:16;;;;;;;5.80;1.58;;;18.30;50.50;;;;;;4512938;31;20180;-65
2022/05/05 08:33:43;;;;;;;4.63;1.60;;;18.30;50.30;;;;;;4513339;31;20140;-64
2022/05/05 08:36:09;;;;;;;9.93;2.00;;;18.30;50.40;;;;;;4499213;31;20174;-65
2022/05/05 08:38:35;;;;;;;7.05;2.33;;;18.30;50.20;;;;;;4485608;31;20281;-64
2022/05/05 08:41:02;;;;;;;6.82;1.70;;;18.30;50.20;;;;;;4513328;31;20132;-64
2022/05/05 08:43:29;;;;;;;5.78;2.00;;;18.30;50.10;;;;;;4512572;31;20132;-64
2022/05/05 08:45:57;;;;;;;4.60;1.80;;;18.30;50.00;;;;;;4514406;31;20138;-63
2022/05/05 08:48:24;;;;;;;5.88;2.00;;;18.30;49.90;;;;;;4513928;31;20147;-64
2022/05/05 08:50:56;;;;;;;6.95;2.30;;;18.30;49.80;;;;;;4513706;31;20139;-64
2022/05/05 08:53:29;;;;;;;6.40;1.95;;;18.40;49.70;;;;;;4514735;31;20171;-65
2022/05/05 08:55:55;;;;;;;6.10;1.80;;;18.40;49.60;;;;;;4513896;31;20621;-65
2022/05/05 08:58:22;;;;;;;7.43;2.17;;;18.40;49.50;;;;;;4514100;31;20350;-65
2022/05/05 09:00:52;;;;;;;7.68;2.03;;;18.40;49.40;;;;;;4513557;31;20285;-65
2022/05/05 09:03:19;;;;;;;7.30;2.35;;;18.50;49.40;;;;;;4513842;31;20120;-65
2022/05/05 09:05:44;;;;;;;6.18;2.13;;;18.50;49.30;;;;;;4514164;31;20185;-65
2022/05/05 09:08:25;;;;;;;6.75;2.05;;;18.50;49.30;;;;;;4513284;31;20128;-65
2022/05/05 09:10:54;;;;;;;9.80;1.98;;;18.50;49.40;;;;;;4514133;31;20277;-65
2022/05/05 09:13:27;;;;;;;16.50;2.50;;;18.50;49.40;;;;;;4513319;31;20143;-65
2022/05/05 09:15:53;;;;;;;;;;;18.60;49.50;;;;;;4514576;31;20147;-65
2022/05/05 09:18:21;;;;;;;10.27;2.35;;;18.60;49.60;;;;;;4512493;31;20459;-65
2022/05/05 09:20:49;;;;;;;5.47;1.88;;;18.60;49.40;;;;;;4513226;31;20128;-65
2022/05/05 09:26:27;;;;;;;3.45;1.65;;;18.70;49.40;;;;;;4513408;31;20221;-65
2022/05/05 09:28:53;;;;;;;4.90;1.65;;;18.70;49.30;;;;;;4513431;31;20144;-65
2022/05/05 09:31:21;;;;;;;5.53;1.90;;;18.80;49.40;;;;;;4513722;31;20261;-65
2022/05/05 09:33:47;;;;;;;7.00;2.20;;;18.80;49.30;;;;;;4513120;31;20580;-65
2022/05/05 09:36:25;;;;;;;8.63;1.80;;;18.90;49.20;;;;;;4513819;31;20140;-65
2022/05/05 09:38:50;;;;;;;6.20;1.83;;;18.90;49.30;;;;;;4512048;31;20146;-66
2022/05/05 09:41:28;;;;;;;7.80;2.00;;;18.90;49.30;;;;;;4512428;31;20140;-66
2022/05/05 09:44:00;;;;;;;6.32;1.90;;;19.00;49.30;;;;;;4512388;31;20143;-67
2022/05/05 09:46:28;;;;;;;4.88;2.35;;;19.00;49.20;;;;;;4512904;31;20136;-65
2022/05/05 09:49:07;;;;;;;7.82;2.40;;;19.00;49.10;;;;;;4512350;31;20124;-67
2022/05/05 09:51:40;;;;;;;9.15;2.05;;;19.00;49.10;;;;;;4512662;31;20133;-65
2022/05/05 09:59:46;;;;;;;7.55;2.25;;;19.10;49.10;;;;;;4512658;31;20209;-66
2022/05/05 10:04:00;;;;;;;5.53;2.38;;;19.10;49.00;;;;;;4513516;31;20142;-65
2022/05/05 10:05:08;;;;;;;5.10;2.33;;;19.10;48.90;;;;;;4512301;31;20581;-65
2022/05/05 10:07:38;;;;;;;8.35;2.55;;;19.10;49.00;;;;;;4512207;31;20143;-66
2022/05/05 10:10:07;;;;;;;6.13;2.03;;;19.10;49.00;;;;;;4502548;31;20137;-66
2022/05/05 10:12:37;;;;;;;7.88;2.30;;;19.10;49.10;;;;;;4495077;31;20124;-66
2022/05/05 10:15:04;;;;;;;5.22;2.28;;;19.20;49.30;;;;;;4502749;31;20274;-65
2022/05/05 10:17:31;;;;;;;5.00;2.35;;;19.20;49.40;;;;;;4496453;31;20125;-65
2022/05/05 10:19:57;;;;;;;4.32;2.05;;;19.20;49.40;;;;;;4495506;31;20214;-65
2022/05/05 10:22:38;;;;;;;4.18;2.40;;;19.20;49.40;;;;;;4495611;31;20190;-66
2022/05/05 10:25:13;;;;;;;5.80;2.20;;;19.20;49.50;;;;;;4502871;31;20124;-65
2022/05/05 10:27:43;;;;;;;7.22;2.55;;;19.20;49.50;;;;;;4497418;31;20151;-65
2022/05/05 10:30:36;;;;;;;5.35;2.53;;;19.20;49.50;;;;;;4496586;31;20273;-65
2022/05/05 10:33:06;;;;;;;6.38;2.75;;;19.20;49.50;;;;;;4497412;31;20156;-66
2022/05/05 10:35:47;;;;;;;5.75;2.92;;;19.30;49.50;;;;;;4496119;32;20237;-66
2022/05/05 10:38:41;;;;;;;5.80;2.83;;;19.30;49.40;;;;;;4496935;31;20578;-66
2022/05/05 10:41:25;;;;;;;;;;;19.30;49.50;;;;;;4496918;32;20249;-66
2022/05/05 10:44:20;;;;;;;12.50;4.00;;;19.30;49.60;;;;;;4509322;31;20013;-66
2022/05/05 10:46:53;;;;;;;11.73;3.60;;;19.30;49.50;;;;;;4495373;32;20140;-65
2022/05/05 10:49:34;;;;;;;7.90;3.28;;;19.40;49.50;;;;;;4497139;32;20278;-66
2022/05/05 10:52:09;;;;;;;7.32;3.15;;;19.40;49.70;;;;;;4496648;32;20254;-66
2022/05/05 10:54:39;;;;;;;9.35;3.58;;;19.40;49.70;;;;;;4497020;32;20287;-70
2022/05/05 10:57:24;;;;;;;6.35;3.03;;;19.40;49.80;;;;;;4496022;31;20227;-65
2022/05/05 11:00:18;;;;;;;7.93;3.08;;;19.50;50.00;;;;;;4494914;31;20132;-65
2022/05/05 11:03:02;;;;;;;8.32;2.97;;;19.40;50.00;;;;;;4496482;31;20113;-65
2022/05/05 11:05:31;;;;;;;;;;;19.40;50.00;;;;;;4500964;31;20570;-65
2022/05/05 11:08:08;;;;;;;7.60;2.88;;;19.40;50.20;;;;;;4498715;31;20148;-65
2022/05/05 11:10:47;;;;;;;8.77;2.88;;;19.40;50.00;;;;;;4499457;31;20279;-65
2022/05/05 11:13:36;;;;;;;8.27;2.97;;;19.50;50.00;;;;;;4498862;31;20124;-65
2022/05/05 11:22:13;;;;;;;9.20;2.78;;;19.40;50.00;;;;;;4498978;31;20124;-65
2022/05/05 11:24:47;;;;;;;6.90;2.90;;;19.50;50.20;;;;;;4498327;31;20148;-65
2022/05/05 11:27:14;;;;;;;9.20;3.47;;;19.40;50.10;;;;;;4486378;31;20582;-64
2022/05/05 11:29:47;;;;;;;5.85;2.50;;;19.50;50.00;;;;;;4498875;31;20136;-65
2022/05/05 11:32:13;;;;;;;11.18;3.22;;;19.50;50.00;;;;;;4498578;31;20129;-65
2022/05/05 11:34:40;;;;;;;6.70;2.83;;;19.50;49.90;;;;;;4498909;31;20129;-65
2022/05/05 11:37:08;;;;;;;8.48;3.58;;;19.50;49.80;;;;;;4499430;31;20128;-66
2022/05/05 11:39:35;;;;;;;8.07;3.30;;;19.50;49.60;;;;;;4499305;31;20132;-65
2022/05/05 11:42:06;;;;;;;8.68;3.78;;;19.50;49.40;;;;;;4498772;31;20128;-66
2022/05/05 11:44:40;;;;;;;5.45;2.92;;;19.50;49.30;;;;;;4498730;31;20513;-66
2022/05/05 11:47:14;;;;;;;6.22;3.30;;;19.50;49.20;;;;;;4498722;31;20136;-65
2022/05/05 11:49:43;;;;;;;;;;;19.60;49.20;;;;;;4498634;31;20121;-65
2022/05/05 11:52:19;;;;;;;10.77;3.10;;;19.60;49.00;;;;;;4485819;31;20155;-65
2022/05/05 11:54:48;;;;;;;7.18;3.22;;;19.60;49.00;;;;;;4508595;31;20278;-65
2022/05/05 11:57:33;;;;;;;5.88;3.10;;;19.60;49.00;;;;;;4497971;31;20140;-65
2022/05/05 12:02:44;;;;;;;6.40;3.58;;;19.60;48.90;;;;;;4489301;31;20136;-65
2022/05/05 12:05:11;;;;;;;5.75;3.42;;;19.60;48.80;;;;;;4504250;31;20143;-64
2022/05/05 12:07:39;;;;;;;6.50;3.10;;;19.60;48.70;;;;;;4496881;31;20139;-65
2022/05/05 12:10:07;;;;;;;7.05;3.05;;;19.70;48.70;;;;;;4497791;31;20124;-65
2022/05/05 12:12:35;;;;;;;5.75;3.10;;;19.70;48.70;;;;;;4497084;31;20219;-64
2022/05/05 12:15:10;;;;;;;7.13;2.90;;;19.70;48.70;;;;;;4498013;31;20229;-65
2022/05/05 12:17:59;;;;;;;7.70;3.13;;;19.70;48.70;;;;;;4497028;31;20129;-66
2022/05/05 12:20:26;;;;;;;5.32;2.97;;;19.70;48.70;;;;;;4498334;31;20190;-65
2022/05/05 12:22:57;;;;;;;5.00;2.80;;;19.70;48.70;;;;;;4499172;31;20159;-64
2022/05/05 12:25:25;;;;;;;4.72;2.83;;;19.80;48.80;;;;;;4497971;31;20128;-65
2022/05/05 12:27:53;;;;;;;6.10;2.80;;;19.70;48.80;;;;;;4498992;31;20151;-65
2022/05/05 12:30:39;;;;;;;5.72;2.70;;;19.80;48.90;;;;;;4497022;31;20132;-65
2022/05/05 12:33:07;;;;;;;4.63;2.92;;;19.80;49.10;;;;;;4498484;31;20210;-65
2022/05/05 12:35:39;;;;;;;6.30;2.80;;;19.80;49.00;;;;;;4498781;31;20155;-65
2022/05/05 12:38:06;;;;;;;5.93;3.03;;;19.80;49.10;;;;;;4497810;31;20267;-65
2022/05/05 12:40:33;;;;;;;6.65;3.20;;;19.90;49.30;;;;;;4498808;31;20155;-65
2022/05/05 12:43:08;;;;;;;5.70;3.20;;;19.80;49.30;;;;;;4497978;31;20132;-65
2022/05/05 12:45:36;;;;;;;7.65;3.15;;;19.90;49.40;;;;;;4497146;31;20139;-66
2022/05/05 12:48:07;;;;;;;5.70;2.90;;;19.90;49.40;;;;;;4497180;31;20155;-66
2022/05/05 12:50:49;;;;;;;5.25;3.05;;;19.90;49.40;;;;;;4497419;31;20604;-65
2022/05/05 13:01:47;;;;;;;5.57;2.78;;;20.10;49.20;;;;;;4498674;31;20136;-65
2022/05/05 13:04:15;;;;;;;5.72;2.80;;;20.10;49.10;;;;;;4497694;31;20131;-66
2022/05/05 13:06:44;;;;;;;6.20;2.80;;;20.10;49.00;;;;;;4498277;31;20162;-66
2022/05/05 13:09:12;;;;;;;9.18;3.10;;;20.20;49.00;;;;;;4496552;31;20659;-66
2022/05/05 13:11:40;;;;;;;10.93;2.75;;;20.20;48.90;;;;;;4483692;31;20179;-66
2022/05/05 13:14:06;;;;;;;6.50;2.80;;;20.20;48.90;;;;;;4498220;31;20184;-66
2022/05/05 13:16:33;;;;;;;5.68;2.70;;;20.30;48.90;;;;;;4497300;31;20592;-65
2022/05/05 13:19:01;;;;;;;8.18;2.80;;;20.30;48.80;;;;;;4497948;31;20140;-65
2022/05/05 13:21:28;;;;;;;6.30;3.17;;;20.30;48.70;;;;;;4496208;31;20481;-66
2022/05/05 13:23:55;;;;;;;7.05;2.88;;;20.30;48.60;;;;;;4497766;31;20147;-65
2022/05/05 13:26:20;;;;;;;8.15;3.20;;;20.30;48.60;;;;;;4497425;31;20171;-65
2022/05/05 13:28:46;;;;;;;11.45;3.10;;;20.40;48.60;;;;;;4495852;31;20116;-66
2022/05/05 13:31:13;;;;;;;5.93;2.85;;;20.40;48.60;;;;;;4496850;31;20156;-66
2022/05/05 13:33:39;;;;;;;6.75;3.25;;;20.40;48.50;;;;;;4496153;31;20131;-65
2022/05/05 13:36:05;;;;;;;6.32;2.80;;;20.40;48.50;;;;;;4483936;31;20139;-65
2022/05/05 13:38:31;;;;;;;5.55;2.78;;;20.40;48.30;;;;;;4497150;31;20125;-65
2022/05/05 13:40:57;;;;;;;6.07;2.83;;;20.40;48.20;;;;;;4496669;31;20124;-65
2022/05/05 13:43:23;;;;;;;7.47;3.00;;;20.40;48.10;;;;;;4496243;31;20178;-65